sensor_id;sensor_type;location;lat;lon;timestamp;temperature;humidity
13464;DHT22;6804;48.774;9.174;2022-12-07T00:01:46;6.50;99.90
13464;DHT22;6804;48.774;9.174;2022-12-07T00:04:15;6.50;99.90
13464;DHT22;6804;48.774;9.174;2022-12-07T00:06:46;6.50;99.90
13464;DHT22;6804;48.774;9.174;2022-12-07T00:09:19;6.50;99.90
13464;DHT22;6804;48.774;9.174;2022-12-07T00:11:50;6.60;99.90
13464;DHT22;6804;48.774;9.174;2022-12-07T00:14:19;6.60;99.90
13464;DHT22;6804;48.774;9.174;2022-12-07T00:16:49;6.60;99.90
13464;DHT22;6804;48.774;9.174;2022-12-07T00:19:20;6.60;99.90
13464;DHT22;6804;48.774;9.174;2022-12-07T00:21:48;6.50;99.90
13464;DHT22;6804;48.774;9.174;2022-12-07T00:24:19;6.40;99.90
13464;DHT22;6804;48.774;9.174;2022-12-07T00:26:47;6.50;99.90
13464;DHT22;6804;48.774;9.174;2022-12-07T00:29:21;6.50;99.90
13464;DHT22;6804;48.774;9.174;2022-12-07T00:31:49;6.60;99.90
13464;DHT22;6804;48.774;9.174;2022-12-07T00:34:18;6.50;99.90
13464;DHT22;6804;48.774;9.174;2022-12-07T00:36:49;6.50;99.90
13464;DHT22;6804;48.774;9.174;2022-12-07T00:39:19;6.50;99.90
13464;DHT22;6804;48.774;9.174;2022-12-07T00:41:47;6.50;99.90
13464;DHT22;6804;48.774;9.174;2022-12-07T00:44:14;6.40;99.90
13464;DHT22;6804;48.774;9.174;2022-12-07T00:46:43;6.50;99.90
13464;DHT22;6804;48.774;9.174;2022-12-07T00:49:13;6.50;99.90
13464;DHT22;6804;48.774;9.174;2022-12-07T00:51:41;6.50;99.90
13464;DHT22;6804;48.774;9.174;2022-12-07T00:54:08;6.40;99.90
13464;DHT22;6804;48.774;9.174;2022-12-07T00:56:41;6.40;99.90
13464;DHT22;6804;48.774;9.174;2022-12-07T00:59:12;6.30;99.90
13464;DHT22;6804;48.774;9.174;2022-12-07T01:01:39;6.30;99.90
13464;DHT22;6804;48.774;9.174;2022-12-07T01:04:09;6.30;99.90
13464;DHT22;6804;48.774;9.174;2022-12-07T01:06:39;6.30;99.90
13464;DHT22;6804;48.774;9.174;2022-12-07T01:09:10;6.30;99.90
13464;DHT22;6804;48.774;9.174;2022-12-07T01:11:45;6.30;99.90
13464;DHT22;6804;48.774;9.174;2022-12-07T01:14:12;6.30;99.90
13464;DHT22;6804;48.774;9.174;2022-12-07T01:16:40;6.40;99.90
13464;DHT22;6804;48.774;9.174;2022-12-07T01:19:12;6.40;99.90
13464;DHT22;6804;48.774;9.174;2022-12-07T01:21:43;6.40;99.90
13464;DHT22;6804;48.774;9.174;2022-12-07T01:24:11;6.40;99.90
13464;DHT22;6804;48.774;9.174;2022-12-07T01:26:42;6.40;99.90
13464;DHT22;6804;48.774;9.174;2022-12-07T01:29:10;6.30;99.90
13464;DHT22;6804;48.774;9.174;2022-12-07T01:31:38;6.30;99.90
13464;DHT22;6804;48.774;9.174;2022-12-07T01:34:13;6.30;99.90
13464;DHT22;6804;48.774;9.174;2022-12-07T01:36:40;6.30;99.90
13464;DHT22;6804;48.774;9.174;2022-12-07T01:39:10;6.40;99.90
13464;DHT22;6804;48.774;9.174;2022-12-07T01:41:40;6.30;99.90
13464;DHT22;6804;48.774;9.174;2022-12-07T01:44:20;6.40;99.90
13464;DHT22;6804;48.774;9.174;2022-12-07T01:46:52;6.40;99.90
13464;DHT22;6804;48.774;9.174;2022-12-07T01:49:31;6.40;99.90
13464;DHT22;6804;48.774;9.174;2022-12-07T01:52:10;6.40;99.90
13464;DHT22;6804;48.774;9.174;2022-12-07T01:54:40;6.40;99.90
13464;DHT22;6804;48.774;9.174;2022-12-07T01:57:11;6.40;99.90
13464;DHT22;6804;48.774;9.174;2022-12-07T01:59:42;6.40;99.90
13464;DHT22;6804;48.774;9.174;2022-12-07T02:02:17;6.40;99.90
13464;DHT22;6804;48.774;9.174;2022-12-07T02:04:46;6.40;99.90
13464;DHT22;6804;48.774;9.174;2022-12-07T02:07:16;6.40;99.90
13464;DHT22;6804;48.774;9.174;2022-12-07T02:09:44;6.40;99.90
13464;DHT22;6804;48.774;9.174;2022-12-07T02:12:11;6.40;99.90
13464;DHT22;6804;48.774;9.174;2022-12-07T02:14:42;6.40;99.90
13464;DHT22;6804;48.774;9.174;2022-12-07T02:17:17;6.30;99.90
13464;DHT22;6804;48.774;9.174;2022-12-07T02:20:00;6.20;99.90
13464;DHT22;6804;48.774;9.174;2022-12-07T02:22:52;6.30;99.90
13464;DHT22;6804;48.774;9.174;2022-12-07T02:25:33;6.30;99.90
13464;DHT22;6804;48.774;9.174;2022-12-07T02:28:06;6.30;99.90
13464;DHT22;6804;48.774;9.174;2022-12-07T02:30:47;6.30;99.90
13464;DHT22;6804;48.774;9.174;2022-12-07T02:33:23;6.30;99.90
13464;DHT22;6804;48.774;9.174;2022-12-07T02:35:58;6.30;99.90
13464;DHT22;6804;48.774;9.174;2022-12-07T02:38:35;6.30;99.90
13464;DHT22;6804;48.774;9.174;2022-12-07T02:41:07;6.30;99.90
13464;DHT22;6804;48.774;9.174;2022-12-07T02:43:42;6.30;99.90
13464;DHT22;6804;48.774;9.174;2022-12-07T02:46:18;6.30;99.90
13464;DHT22;6804;48.774;9.174;2022-12-07T02:48:51;6.30;99.90
13464;DHT22;6804;48.774;9.174;2022-12-07T02:51:22;6.30;99.90
13464;DHT22;6804;48.774;9.174;2022-12-07T02:53:52;6.20;99.90
13464;DHT22;6804;48.774;9.174;2022-12-07T02:56:26;6.20;99.90
13464;DHT22;6804;48.774;9.174;2022-12-07T02:59:02;6.20;99.90
13464;DHT22;6804;48.774;9.174;2022-12-07T03:01:39;6.10;99.90
13464;DHT22;6804;48.774;9.174;2022-12-07T03:04:20;6.20;99.90
13464;DHT22;6804;48.774;9.174;2022-12-07T03:06:57;6.10;99.90
13464;DHT22;6804;48.774;9.174;2022-12-07T03:09:36;6.20;99.90
13464;DHT22;6804;48.774;9.174;2022-12-07T03:12:10;6.20;99.90
13464;DHT22;6804;48.774;9.174;2022-12-07T03:14:45;6.20;99.90
13464;DHT22;6804;48.774;9.174;2022-12-07T03:17:17;6.30;99.90
13464;DHT22;6804;48.774;9.174;2022-12-07T03:19:48;6.30;99.90
13464;DHT22;6804;48.774;9.174;2022-12-07T03:22:20;6.40;99.90
13464;DHT22;6804;48.774;9.174;2022-12-07T03:24:54;6.30;99.90
13464;DHT22;6804;48.774;9.174;2022-12-07T03:27:27;6.20;99.90
13464;DHT22;6804;48.774;9.174;2022-12-07T03:29:59;6.20;99.90
13464;DHT22;6804;48.774;9.174;2022-12-07T03:32:33;6.20;99.90
13464;DHT22;6804;48.774;9.174;2022-12-07T03:35:05;6.20;99.90
13464;DHT22;6804;48.774;9.174;2022-12-07T03:37:40;6.20;99.90
13464;DHT22;6804;48.774;9.174;2022-12-07T03:40:15;6.30;99.90
13464;DHT22;6804;48.774;9.174;2022-12-07T03:42:43;6.30;99.90
13464;DHT22;6804;48.774;9.174;2022-12-07T03:45:14;6.20;99.90
13464;DHT22;6804;48.774;9.174;2022-12-07T03:47:50;6.20;99.90
13464;DHT22;6804;48.774;9.174;2022-12-07T03:50:29;6.30;99.90
13464;DHT22;6804;48.774;9.174;2022-12-07T03:53:02;6.30;99.90
13464;DHT22;6804;48.774;9.174;2022-12-07T03:55:36;6.30;99.90
13464;DHT22;6804;48.774;9.174;2022-12-07T03:58:07;6.20;99.90
13464;DHT22;6804;48.774;9.174;2022-12-07T04:00:36;6.20;99.90
13464;DHT22;6804;48.774;9.174;2022-12-07T04:03:05;6.20;99.90
13464;DHT22;6804;48.774;9.174;2022-12-07T04:05:35;6.20;99.90
13464;DHT22;6804;48.774;9.174;2022-12-07T04:08:07;6.30;99.90
13464;DHT22;6804;48.774;9.174;2022-12-07T04:10:34;6.30;99.90
13464;DHT22;6804;48.774;9.174;2022-12-07T04:13:02;6.30;99.90
13464;DHT22;6804;48.774;9.174;2022-12-07T04:15:32;6.30;99.90
13464;DHT22;6804;48.774;9.174;2022-12-07T04:17:59;6.30;99.90
13464;DHT22;6804;48.774;9.174;2022-12-07T04:20:28;6.20;99.90
13464;DHT22;6804;48.774;9.174;2022-12-07T04:22:55;6.20;99.90
13464;DHT22;6804;48.774;9.174;2022-12-07T04:25:25;6.30;99.90
13464;DHT22;6804;48.774;9.174;2022-12-07T04:27:55;6.30;99.90
13464;DHT22;6804;48.774;9.174;2022-12-07T04:30:22;6.30;99.90
13464;DHT22;6804;48.774;9.174;2022-12-07T04:32:50;6.30;99.90
13464;DHT22;6804;48.774;9.174;2022-12-07T04:35:17;6.40;99.90
13464;DHT22;6804;48.774;9.174;2022-12-07T04:37:45;6.30;99.90
13464;DHT22;6804;48.774;9.174;2022-12-07T04:40:16;6.20;99.90
13464;DHT22;6804;48.774;9.174;2022-12-07T04:42:46;6.20;99.90
13464;DHT22;6804;48.774;9.174;2022-12-07T04:45:13;6.10;99.90
13464;DHT22;6804;48.774;9.174;2022-12-07T04:47:41;6.10;99.90
13464;DHT22;6804;48.774;9.174;2022-12-07T04:50:10;6.10;99.90
13464;DHT22;6804;48.774;9.174;2022-12-07T04:52:37;6.00;99.90
13464;DHT22;6804;48.774;9.174;2022-12-07T04:55:08;6.00;99.90
13464;DHT22;6804;48.774;9.174;2022-12-07T04:57:36;6.00;99.90
13464;DHT22;6804;48.774;9.174;2022-12-07T05:00:07;6.00;99.90
13464;DHT22;6804;48.774;9.174;2022-12-07T05:02:35;6.00;99.90
13464;DHT22;6804;48.774;9.174;2022-12-07T05:05:02;6.00;99.90
13464;DHT22;6804;48.774;9.174;2022-12-07T05:07:30;6.00;99.90
13464;DHT22;6804;48.774;9.174;2022-12-07T05:09:58;6.00;99.90
13464;DHT22;6804;48.774;9.174;2022-12-07T05:12:26;6.00;99.90
13464;DHT22;6804;48.774;9.174;2022-12-07T05:14:54;6.00;99.90
13464;DHT22;6804;48.774;9.174;2022-12-07T05:17:22;6.00;99.90
13464;DHT22;6804;48.774;9.174;2022-12-07T05:19:49;6.10;99.90
13464;DHT22;6804;48.774;9.174;2022-12-07T05:22:16;6.10;99.90
13464;DHT22;6804;48.774;9.174;2022-12-07T05:24:43;6.10;99.90
13464;DHT22;6804;48.774;9.174;2022-12-07T05:27:11;6.10;99.90
13464;DHT22;6804;48.774;9.174;2022-12-07T05:29:39;6.20;99.90
13464;DHT22;6804;48.774;9.174;2022-12-07T05:32:07;6.00;99.90
13464;DHT22;6804;48.774;9.174;2022-12-07T05:34:35;6.00;99.90
13464;DHT22;6804;48.774;9.174;2022-12-07T05:37:07;5.90;99.90
13464;DHT22;6804;48.774;9.174;2022-12-07T05:39:38;6.00;99.90
13464;DHT22;6804;48.774;9.174;2022-12-07T05:42:10;6.00;99.90
13464;DHT22;6804;48.774;9.174;2022-12-07T05:44:46;6.00;99.90
13464;DHT22;6804;48.774;9.174;2022-12-07T05:47:15;6.00;99.90
13464;DHT22;6804;48.774;9.174;2022-12-07T05:49:43;6.00;99.90
13464;DHT22;6804;48.774;9.174;2022-12-07T05:52:10;6.00;99.90
13464;DHT22;6804;48.774;9.174;2022-12-07T05:54:37;6.00;99.90
13464;DHT22;6804;48.774;9.174;2022-12-07T05:57:08;5.90;99.90
13464;DHT22;6804;48.774;9.174;2022-12-07T05:59:38;5.90;99.90
13464;DHT22;6804;48.774;9.174;2022-12-07T06:02:08;5.90;99.90
13464;DHT22;6804;48.774;9.174;2022-12-07T06:04:43;5.80;99.90
13464;DHT22;6804;48.774;9.174;2022-12-07T06:07:12;5.80;99.90
13464;DHT22;6804;48.774;9.174;2022-12-07T06:09:39;5.80;99.90
13464;DHT22;6804;48.774;9.174;2022-12-07T06:12:09;5.90;99.90
13464;DHT22;6804;48.774;9.174;2022-12-07T06:14:54;5.80;99.90
13464;DHT22;6804;48.774;9.174;2022-12-07T06:17:25;5.70;99.90
13464;DHT22;6804;48.774;9.174;2022-12-07T06:19:58;5.60;99.90
13464;DHT22;6804;48.774;9.174;2022-12-07T06:22:28;5.70;99.90
13464;DHT22;6804;48.774;9.174;2022-12-07T06:24:59;5.70;99.90
13464;DHT22;6804;48.774;9.174;2022-12-07T06:27:27;5.70;99.90
13464;DHT22;6804;48.774;9.174;2022-12-07T06:29:55;5.80;99.90
13464;DHT22;6804;48.774;9.174;2022-12-07T06:32:28;5.80;99.90
13464;DHT22;6804;48.774;9.174;2022-12-07T06:34:55;5.90;99.90
13464;DHT22;6804;48.774;9.174;2022-12-07T06:37:23;5.90;99.90
13464;DHT22;6804;48.774;9.174;2022-12-07T06:39:50;5.90;99.90
13464;DHT22;6804;48.774;9.174;2022-12-07T06:42:20;5.90;99.90
13464;DHT22;6804;48.774;9.174;2022-12-07T06:44:47;5.90;99.90
13464;DHT22;6804;48.774;9.174;2022-12-07T06:47:15;5.90;99.90
13464;DHT22;6804;48.774;9.174;2022-12-07T06:49:44;5.90;99.90
13464;DHT22;6804;48.774;9.174;2022-12-07T06:52:11;5.90;99.90
13464;DHT22;6804;48.774;9.174;2022-12-07T06:54:41;5.90;99.90
13464;DHT22;6804;48.774;9.174;2022-12-07T06:57:08;5.80;99.90
13464;DHT22;6804;48.774;9.174;2022-12-07T06:59:38;5.80;99.90
13464;DHT22;6804;48.774;9.174;2022-12-07T07:02:07;5.70;99.90
13464;DHT22;6804;48.774;9.174;2022-12-07T07:04:34;5.80;99.90
13464;DHT22;6804;48.774;9.174;2022-12-07T07:07:03;5.80;99.90
13464;DHT22;6804;48.774;9.174;2022-12-07T07:09:30;5.70;99.90
13464;DHT22;6804;48.774;9.174;2022-12-07T07:12:00;5.70;99.90
13464;DHT22;6804;48.774;9.174;2022-12-07T07:14:30;5.80;99.90
13464;DHT22;6804;48.774;9.174;2022-12-07T07:16:58;5.90;99.90
13464;DHT22;6804;48.774;9.174;2022-12-07T07:19:26;5.80;99.90
13464;DHT22;6804;48.774;9.174;2022-12-07T07:21:53;5.90;99.90
13464;DHT22;6804;48.774;9.174;2022-12-07T07:24:21;5.90;99.90
13464;DHT22;6804;48.774;9.174;2022-12-07T07:26:51;5.90;99.90
13464;DHT22;6804;48.774;9.174;2022-12-07T07:29:21;5.90;99.90
13464;DHT22;6804;48.774;9.174;2022-12-07T07:31:52;5.80;99.90
13464;DHT22;6804;48.774;9.174;2022-12-07T07:34:19;5.80;99.90
13464;DHT22;6804;48.774;9.174;2022-12-07T07:36:47;5.80;99.90
13464;DHT22;6804;48.774;9.174;2022-12-07T07:39:15;5.80;99.90
13464;DHT22;6804;48.774;9.174;2022-12-07T07:41:43;5.90;99.90
13464;DHT22;6804;48.774;9.174;2022-12-07T07:44:11;5.90;99.90
13464;DHT22;6804;48.774;9.174;2022-12-07T07:46:41;6.00;99.90
13464;DHT22;6804;48.774;9.174;2022-12-07T07:49:09;6.00;99.90
13464;DHT22;6804;48.774;9.174;2022-12-07T07:51:37;6.00;99.90
13464;DHT22;6804;48.774;9.174;2022-12-07T07:54:06;6.00;99.90
13464;DHT22;6804;48.774;9.174;2022-12-07T07:56:36;6.00;99.90
13464;DHT22;6804;48.774;9.174;2022-12-07T07:59:04;6.00;99.90
13464;DHT22;6804;48.774;9.174;2022-12-07T08:01:32;6.00;99.90
13464;DHT22;6804;48.774;9.174;2022-12-07T08:04:07;5.90;99.90
13464;DHT22;6804;48.774;9.174;2022-12-07T08:06:34;6.00;99.90
13464;DHT22;6804;48.774;9.174;2022-12-07T08:09:02;6.00;99.90
13464;DHT22;6804;48.774;9.174;2022-12-07T08:11:31;6.00;99.90
13464;DHT22;6804;48.774;9.174;2022-12-07T08:14:06;6.10;99.90
13464;DHT22;6804;48.774;9.174;2022-12-07T08:16:33;6.10;99.90
13464;DHT22;6804;48.774;9.174;2022-12-07T08:19:01;6.00;99.90
13464;DHT22;6804;48.774;9.174;2022-12-07T08:21:31;6.00;99.90
13464;DHT22;6804;48.774;9.174;2022-12-07T08:24:01;6.00;99.90
13464;DHT22;6804;48.774;9.174;2022-12-07T08:26:33;6.00;99.90
13464;DHT22;6804;48.774;9.174;2022-12-07T08:29:01;6.10;99.90
13464;DHT22;6804;48.774;9.174;2022-12-07T08:31:32;6.10;99.90
13464;DHT22;6804;48.774;9.174;2022-12-07T08:34:06;6.20;99.90
13464;DHT22;6804;48.774;9.174;2022-12-07T08:36:36;6.20;99.90
13464;DHT22;6804;48.774;9.174;2022-12-07T08:39:03;6.20;99.90
13464;DHT22;6804;48.774;9.174;2022-12-07T08:41:32;6.20;99.90
13464;DHT22;6804;48.774;9.174;2022-12-07T08:44:03;6.10;99.90
13464;DHT22;6804;48.774;9.174;2022-12-07T08:46:36;6.20;99.90
13464;DHT22;6804;48.774;9.174;2022-12-07T08:49:08;6.20;99.90
13464;DHT22;6804;48.774;9.174;2022-12-07T08:51:40;6.20;99.90
13464;DHT22;6804;48.774;9.174;2022-12-07T08:54:13;6.20;99.90
13464;DHT22;6804;48.774;9.174;2022-12-07T08:56:44;6.30;99.90
13464;DHT22;6804;48.774;9.174;2022-12-07T08:59:14;6.30;99.90
13464;DHT22;6804;48.774;9.174;2022-12-07T09:01:44;6.40;99.90
13464;DHT22;6804;48.774;9.174;2022-12-07T09:04:14;6.40;99.90
13464;DHT22;6804;48.774;9.174;2022-12-07T09:06:41;6.50;99.90
13464;DHT22;6804;48.774;9.174;2022-12-07T09:09:09;6.50;99.90
13464;DHT22;6804;48.774;9.174;2022-12-07T09:11:37;6.50;99.90
13464;DHT22;6804;48.774;9.174;2022-12-07T09:14:04;6.60;99.90
13464;DHT22;6804;48.774;9.174;2022-12-07T09:16:34;6.60;99.90
13464;DHT22;6804;48.774;9.174;2022-12-07T09:19:04;6.70;99.90
13464;DHT22;6804;48.774;9.174;2022-12-07T09:21:34;6.70;99.90
13464;DHT22;6804;48.774;9.174;2022-12-07T09:24:05;6.70;99.90
13464;DHT22;6804;48.774;9.174;2022-12-07T09:26:33;6.80;99.90
13464;DHT22;6804;48.774;9.174;2022-12-07T09:29:02;6.80;99.90
13464;DHT22;6804;48.774;9.174;2022-12-07T09:31:35;6.80;99.90
13464;DHT22;6804;48.774;9.174;2022-12-07T09:34:05;6.80;99.90
13464;DHT22;6804;48.774;9.174;2022-12-07T09:36:35;6.90;99.90
13464;DHT22;6804;48.774;9.174;2022-12-07T09:39:05;6.90;99.90
13464;DHT22;6804;48.774;9.174;2022-12-07T09:41:37;6.90;99.90
13464;DHT22;6804;48.774;9.174;2022-12-07T09:44:07;7.00;99.90
13464;DHT22;6804;48.774;9.174;2022-12-07T09:46:38;7.00;99.90
13464;DHT22;6804;48.774;9.174;2022-12-07T09:49:14;7.10;99.90
13464;DHT22;6804;48.774;9.174;2022-12-07T09:51:44;7.10;99.90
13464;DHT22;6804;48.774;9.174;2022-12-07T09:54:18;7.20;99.90
13464;DHT22;6804;48.774;9.174;2022-12-07T09:56:48;7.20;99.90
13464;DHT22;6804;48.774;9.174;2022-12-07T09:59:17;7.20;99.90
13464;DHT22;6804;48.774;9.174;2022-12-07T10:01:49;7.20;99.90
13464;DHT22;6804;48.774;9.174;2022-12-07T10:04:19;7.10;99.90
13464;DHT22;6804;48.774;9.174;2022-12-07T10:06:50;7.10;99.90
13464;DHT22;6804;48.774;9.174;2022-12-07T10:09:19;7.10;99.90
13464;DHT22;6804;48.774;9.174;2022-12-07T10:12:05;7.10;99.90
13464;DHT22;6804;48.774;9.174;2022-12-07T10:14:51;7.20;99.90
13464;DHT22;6804;48.774;9.174;2022-12-07T10:17:35;7.20;99.90
13464;DHT22;6804;48.774;9.174;2022-12-07T10:20:21;7.20;99.90
13464;DHT22;6804;48.774;9.174;2022-12-07T10:22:57;7.30;99.90
13464;DHT22;6804;48.774;9.174;2022-12-07T10:25:27;7.30;99.90
13464;DHT22;6804;48.774;9.174;2022-12-07T10:28:00;7.30;99.90
13464;DHT22;6804;48.774;9.174;2022-12-07T10:30:30;7.30;99.90
13464;DHT22;6804;48.774;9.174;2022-12-07T10:32:59;7.30;99.90
13464;DHT22;6804;48.774;9.174;2022-12-07T10:35:30;7.30;99.90
13464;DHT22;6804;48.774;9.174;2022-12-07T10:38:16;7.30;99.90
13464;DHT22;6804;48.774;9.174;2022-12-07T10:41:04;7.40;99.90
13464;DHT22;6804;48.774;9.174;2022-12-07T10:43:33;7.50;99.90
13464;DHT22;6804;48.774;9.174;2022-12-07T10:46:22;7.50;99.90
13464;DHT22;6804;48.774;9.174;2022-12-07T10:48:59;7.50;99.90
13464;DHT22;6804;48.774;9.174;2022-12-07T10:51:37;7.50;99.90
13464;DHT22;6804;48.774;9.174;2022-12-07T10:54:18;7.50;99.90
13464;DHT22;6804;48.774;9.174;2022-12-07T10:57:18;7.50;99.90
13464;DHT22;6804;48.774;9.174;2022-12-07T11:00:04;7.40;99.90
13464;DHT22;6804;48.774;9.174;2022-12-07T11:02:59;7.40;99.90
13464;DHT22;6804;48.774;9.174;2022-12-07T11:05:38;7.40;99.90
13464;DHT22;6804;48.774;9.174;2022-12-07T11:08:21;7.40;99.90
13464;DHT22;6804;48.774;9.174;2022-12-07T11:11:06;7.40;99.90
13464;DHT22;6804;48.774;9.174;2022-12-07T11:13:41;7.40;99.90
13464;DHT22;6804;48.774;9.174;2022-12-07T11:16:36;7.40;99.90
13464;DHT22;6804;48.774;9.174;2022-12-07T11:19:26;7.40;99.90
13464;DHT22;6804;48.774;9.174;2022-12-07T11:22:01;7.40;99.90
13464;DHT22;6804;48.774;9.174;2022-12-07T11:24:42;7.40;99.90
13464;DHT22;6804;48.774;9.174;2022-12-07T11:27:22;7.40;99.90
13464;DHT22;6804;48.774;9.174;2022-12-07T11:30:11;7.40;99.90
13464;DHT22;6804;48.774;9.174;2022-12-07T11:32:50;7.40;99.90
13464;DHT22;6804;48.774;9.174;2022-12-07T11:35:32;7.40;99.90
13464;DHT22;6804;48.774;9.174;2022-12-07T11:38:10;7.40;99.90
13464;DHT22;6804;48.774;9.174;2022-12-07T11:40:40;7.50;99.90
13464;DHT22;6804;48.774;9.174;2022-12-07T11:43:21;7.50;99.90
13464;DHT22;6804;48.774;9.174;2022-12-07T11:45:59;7.40;99.90
13464;DHT22;6804;48.774;9.174;2022-12-07T11:48:33;7.30;99.90
13464;DHT22;6804;48.774;9.174;2022-12-07T11:51:07;7.30;99.90
13464;DHT22;6804;48.774;9.174;2022-12-07T11:53:39;7.30;99.90
13464;DHT22;6804;48.774;9.174;2022-12-07T11:56:13;7.30;99.90
13464;DHT22;6804;48.774;9.174;2022-12-07T11:58:48;7.30;99.90
13464;DHT22;6804;48.774;9.174;2022-12-07T12:01:26;7.30;99.90
13464;DHT22;6804;48.774;9.174;2022-12-07T12:04:01;7.20;99.90
13464;DHT22;6804;48.774;9.174;2022-12-07T12:06:29;7.20;99.90
13464;DHT22;6804;48.774;9.174;2022-12-07T12:09:02;7.20;99.90
13464;DHT22;6804;48.774;9.174;2022-12-07T12:11:52;7.20;99.90
13464;DHT22;6804;48.774;9.174;2022-12-07T12:14:43;7.20;99.90
13464;DHT22;6804;48.774;9.174;2022-12-07T12:17:59;7.20;99.90
13464;DHT22;6804;48.774;9.174;2022-12-07T12:20:32;7.10;99.90
13464;DHT22;6804;48.774;9.174;2022-12-07T12:23:09;7.10;99.90
13464;DHT22;6804;48.774;9.174;2022-12-07T12:25:41;7.10;99.90
13464;DHT22;6804;48.774;9.174;2022-12-07T12:28:22;7.00;99.90
13464;DHT22;6804;48.774;9.174;2022-12-07T12:31:09;7.00;99.90
13464;DHT22;6804;48.774;9.174;2022-12-07T12:33:38;7.00;99.90
13464;DHT22;6804;48.774;9.174;2022-12-07T12:36:22;7.00;99.90
13464;DHT22;6804;48.774;9.174;2022-12-07T12:38:52;7.00;99.90
13464;DHT22;6804;48.774;9.174;2022-12-07T12:41:56;7.00;99.90
13464;DHT22;6804;48.774;9.174;2022-12-07T12:47:53;7.00;99.90
13464;DHT22;6804;48.774;9.174;2022-12-07T12:50:23;7.00;99.90
13464;DHT22;6804;48.774;9.174;2022-12-07T12:53:03;6.90;99.90
13464;DHT22;6804;48.774;9.174;2022-12-07T12:58:45;6.90;99.90
13464;DHT22;6804;48.774;9.174;2022-12-07T13:01:45;6.90;99.90
13464;DHT22;6804;48.774;9.174;2022-12-07T13:04:38;6.90;99.90
13464;DHT22;6804;48.774;9.174;2022-12-07T13:07:12;6.80;99.90
13464;DHT22;6804;48.774;9.174;2022-12-07T13:09:44;6.90;99.90
13464;DHT22;6804;48.774;9.174;2022-12-07T13:12:14;7.00;99.90
13464;DHT22;6804;48.774;9.174;2022-12-07T13:18:02;7.00;99.90
13464;DHT22;6804;48.774;9.174;2022-12-07T13:20:55;7.00;99.90
13464;DHT22;6804;48.774;9.174;2022-12-07T13:23:35;7.10;99.90
13464;DHT22;6804;48.774;9.174;2022-12-07T13:26:17;7.00;99.90
13464;DHT22;6804;48.774;9.174;2022-12-07T13:28:47;7.00;99.90
13464;DHT22;6804;48.774;9.174;2022-12-07T13:31:36;7.00;99.90
13464;DHT22;6804;48.774;9.174;2022-12-07T13:34:29;7.00;99.90
13464;DHT22;6804;48.774;9.174;2022-12-07T13:37:09;7.00;99.90
13464;DHT22;6804;48.774;9.174;2022-12-07T13:39:45;7.00;99.90
13464;DHT22;6804;48.774;9.174;2022-12-07T13:42:22;7.00;99.90
13464;DHT22;6804;48.774;9.174;2022-12-07T13:44:54;7.00;99.90
13464;DHT22;6804;48.774;9.174;2022-12-07T13:47:28;7.00;99.90
13464;DHT22;6804;48.774;9.174;2022-12-07T13:50:00;7.00;99.90
13464;DHT22;6804;48.774;9.174;2022-12-07T13:52:29;7.00;99.90
13464;DHT22;6804;48.774;9.174;2022-12-07T13:55:05;7.00;99.90
13464;DHT22;6804;48.774;9.174;2022-12-07T13:57:41;7.00;99.90
13464;DHT22;6804;48.774;9.174;2022-12-07T14:00:16;7.10;99.90
13464;DHT22;6804;48.774;9.174;2022-12-07T14:02:56;7.10;99.90
13464;DHT22;6804;48.774;9.174;2022-12-07T14:05:28;7.00;99.90
13464;DHT22;6804;48.774;9.174;2022-12-07T14:07:59;7.00;99.90
13464;DHT22;6804;48.774;9.174;2022-12-07T14:10:29;7.10;99.90
13464;DHT22;6804;48.774;9.174;2022-12-07T14:12:58;7.10;99.90
13464;DHT22;6804;48.774;9.174;2022-12-07T14:15:28;7.10;99.90
13464;DHT22;6804;48.774;9.174;2022-12-07T14:18:26;7.10;99.90
13464;DHT22;6804;48.774;9.174;2022-12-07T14:21:14;7.10;99.90
13464;DHT22;6804;48.774;9.174;2022-12-07T14:23:42;7.20;99.90
13464;DHT22;6804;48.774;9.174;2022-12-07T14:26:15;7.20;99.90
13464;DHT22;6804;48.774;9.174;2022-12-07T14:28:43;7.20;99.90
13464;DHT22;6804;48.774;9.174;2022-12-07T14:31:16;7.20;99.90
13464;DHT22;6804;48.774;9.174;2022-12-07T14:33:44;7.20;99.90
13464;DHT22;6804;48.774;9.174;2022-12-07T14:36:16;7.20;99.90
13464;DHT22;6804;48.774;9.174;2022-12-07T14:38:44;7.20;99.90
13464;DHT22;6804;48.774;9.174;2022-12-07T14:41:18;7.20;99.90
13464;DHT22;6804;48.774;9.174;2022-12-07T14:44:09;7.20;99.90
13464;DHT22;6804;48.774;9.174;2022-12-07T14:46:38;7.10;99.90
13464;DHT22;6804;48.774;9.174;2022-12-07T14:49:08;7.10;99.90
13464;DHT22;6804;48.774;9.174;2022-12-07T14:51:39;7.10;99.90
13464;DHT22;6804;48.774;9.174;2022-12-07T14:54:15;7.10;99.90
13464;DHT22;6804;48.774;9.174;2022-12-07T14:56:47;7.00;99.90
13464;DHT22;6804;48.774;9.174;2022-12-07T14:59:16;7.00;99.90
13464;DHT22;6804;48.774;9.174;2022-12-07T15:01:44;7.00;99.90
13464;DHT22;6804;48.774;9.174;2022-12-07T15:04:15;7.00;99.90
13464;DHT22;6804;48.774;9.174;2022-12-07T15:06:55;7.10;99.90
13464;DHT22;6804;48.774;9.174;2022-12-07T15:09:23;7.10;99.90
13464;DHT22;6804;48.774;9.174;2022-12-07T15:11:51;7.10;99.90
13464;DHT22;6804;48.774;9.174;2022-12-07T15:14:24;7.00;99.90
13464;DHT22;6804;48.774;9.174;2022-12-07T15:16:57;7.00;99.90
13464;DHT22;6804;48.774;9.174;2022-12-07T15:19:27;7.00;99.90
13464;DHT22;6804;48.774;9.174;2022-12-07T15:21:57;7.00;99.90
13464;DHT22;6804;48.774;9.174;2022-12-07T15:24:26;6.90;99.90
13464;DHT22;6804;48.774;9.174;2022-12-07T15:26:54;6.90;99.90
13464;DHT22;6804;48.774;9.174;2022-12-07T15:29:24;6.90;99.90
13464;DHT22;6804;48.774;9.174;2022-12-07T15:31:55;6.80;99.90
13464;DHT22;6804;48.774;9.174;2022-12-07T15:34:26;6.90;99.90
13464;DHT22;6804;48.774;9.174;2022-12-07T15:36:56;6.90;99.90
13464;DHT22;6804;48.774;9.174;2022-12-07T15:39:26;6.90;99.90
13464;DHT22;6804;48.774;9.174;2022-12-07T15:41:56;6.90;99.90
13464;DHT22;6804;48.774;9.174;2022-12-07T15:44:26;6.90;99.90
13464;DHT22;6804;48.774;9.174;2022-12-07T15:47:11;6.90;99.90
13464;DHT22;6804;48.774;9.174;2022-12-07T15:49:38;6.90;99.90
13464;DHT22;6804;48.774;9.174;2022-12-07T15:52:07;6.90;99.90
13464;DHT22;6804;48.774;9.174;2022-12-07T15:54:37;6.80;99.90
13464;DHT22;6804;48.774;9.174;2022-12-07T15:57:08;6.80;99.90
13464;DHT22;6804;48.774;9.174;2022-12-07T15:59:35;6.60;99.90
13464;DHT22;6804;48.774;9.174;2022-12-07T16:02:05;6.50;99.90
13464;DHT22;6804;48.774;9.174;2022-12-07T16:04:33;6.50;99.90
13464;DHT22;6804;48.774;9.174;2022-12-07T16:07:01;6.50;99.90
13464;DHT22;6804;48.774;9.174;2022-12-07T16:09:30;6.50;99.90
13464;DHT22;6804;48.774;9.174;2022-12-07T16:11:57;6.40;99.90
13464;DHT22;6804;48.774;9.174;2022-12-07T16:14:25;6.50;99.90
13464;DHT22;6804;48.774;9.174;2022-12-07T16:16:53;6.50;99.90
13464;DHT22;6804;48.774;9.174;2022-12-07T16:19:26;6.50;99.90
13464;DHT22;6804;48.774;9.174;2022-12-07T16:21:57;6.50;99.90
13464;DHT22;6804;48.774;9.174;2022-12-07T16:24:26;6.50;99.90
13464;DHT22;6804;48.774;9.174;2022-12-07T16:26:55;6.50;99.90
13464;DHT22;6804;48.774;9.174;2022-12-07T16:29:28;6.50;99.90
13464;DHT22;6804;48.774;9.174;2022-12-07T16:31:56;6.50;99.90
13464;DHT22;6804;48.774;9.174;2022-12-07T16:34:27;6.50;99.90
13464;DHT22;6804;48.774;9.174;2022-12-07T16:36:57;6.50;99.90
13464;DHT22;6804;48.774;9.174;2022-12-07T16:39:28;6.50;99.90
13464;DHT22;6804;48.774;9.174;2022-12-07T16:41:57;6.50;99.90
13464;DHT22;6804;48.774;9.174;2022-12-07T16:44:28;6.50;99.90
13464;DHT22;6804;48.774;9.174;2022-12-07T16:46:56;6.50;99.90